Kap Morris Jesup

KL  EN  DA
ASIAQ
Weather Now GREENLAND SURVEY
Updated [WGT/WGST] Temperature [°C] Wind [m/s] Air pressure [hPa] Relative humidity [%] Precipitation [mm]
Present Wind chill Speed Max
24.09 03:00n/an/an/an/an/an/an/a
24.09 02:00-8,9-20,916,0 ⇒20,1101375n/a
24.09 01:00-10,2-22,013,9 ⇒20,1101474n/a
24.09 00:00-11,4-23,513,4 ⇒16,5101467n/a
23.09 23:00-10,6-22,012,4 ⇒16,0101563n/a
23.09 22:00-12,0-23,110,3 ⇒12,9101566n/a
23.09 21:00-12,0-23,711,8 ⇒16,0101667n/a
23.09 20:00-11,3-22,511,3 ⇒14,9101662n/a
23.09 19:00-10,7-21,310,3 ⇒14,4101758n/a
23.09 18:00-10,7-22,212,4 ⇒15,4101761n/a
23.09 17:00-10,9-22,211,8 ⇒16,0101763n/a
23.09 16:00-12,0-23,110,3 ⇒12,9101782n/a
23.09 15:00-12,8-23,99,8 ⇒11,8101786n/a
23.09 14:00-14,1-24,57,7 ⇒11,8101785n/a
23.09 13:00-13,4-23,67,7 ⇒9,8101886n/a
23.09 12:00-13,8-25,09,3 ⇒11,3101885n/a
23.09 11:00-13,1-23,58,2 ⇒10,8101886n/a
23.09 10:00-12,5-22,78,2 ⇒9,8101886n/a
23.09 09:00-13,30,0n/an/a101886n/a
23.09 08:00-13,8-23,16,2 ⇒8,2101886n/a
23.09 07:00-13,7-22,15,1 ⇒8,8101885n/a
23.09 06:00-13,2-18,82,6 ⇒4,1101887n/a
23.09 05:00-13,0-18,62,6 ⇒3,1101887n/a
23.09 04:00-13,8-20,83,6 ⇒4,1101986n/a
23.09 03:00-12,9-18,42,6 ⇒3,6101887n/a
Position: (83.6561111111,-33.3738888888)

[Back]